Time,TemperatureF,DewpointF,PressureIn,WindDirection,WindDirectionDegrees,WindSpeedMPH,WindSpeedGustMPH,Humidity,HourlyPrecipIn,Conditions,Clouds,dailyrainin,SoftwareType,DateUTC
2013-01-24 00:04:00,48.7,48.2,29.94,ENE,60,0.0,0.0,98,0.01,,,0.14,meteohub,2013-01-24 08:04:00,
2013-01-24 00:09:00,48.7,48.2,29.94,ENE,60,0.0,0.0,98,0.01,,,0.14,meteohub,2013-01-24 08:09:00,
2013-01-24 00:14:00,48.7,48.2,29.94,ENE,60,0.0,0.0,98,0.01,,,0.14,meteohub,2013-01-24 08:14:00,
2013-01-24 00:19:00,48.7,48.2,29.94,ENE,60,0.0,0.0,98,0.01,,,0.14,meteohub,2013-01-24 08:19:00,
2013-01-24 00:24:00,48.6,48.0,29.94,ENE,60,0.0,0.0,98,0.01,,,0.14,meteohub,2013-01-24 08:24:00,
2013-01-24 00:29:00,48.6,48.0,29.94,ENE,60,0.0,0.0,98,0.01,,,0.14,meteohub,2013-01-24 08:29:00,
2013-01-24 00:34:00,48.6,48.0,29.94,ENE,60,0.0,0.0,98,0.01,,,0.14,meteohub,2013-01-24 08:34:00,
2013-01-24 00:39:00,48.6,48.0,29.94,ENE,60,0.0,0.0,98,0.01,,,0.14,meteohub,2013-01-24 08:39:00,
2013-01-24 00:44:00,48.6,48.0,29.94,ENE,60,0.0,0.0,98,0.01,,,0.14,meteohub,2013-01-24 08:44:00,
2013-01-24 00:49:00,48.6,48.0,29.94,ENE,60,0.0,0.0,98,0.01,,,0.14,meteohub,2013-01-24 08:49:00,
2013-01-24 00:54:00,48.7,48.2,29.94,ENE,60,0.0,1.0,98,0.01,,,0.14,meteohub,2013-01-24 08:54:00,
2013-01-24 00:59:00,48.7,48.2,29.94,ENE,60,0.0,2.0,98,0.01,,,0.14,meteohub,2013-01-24 08:59:00,
2013-01-24 01:04:00,48.6,48.0,29.94,ENE,60,0.0,2.0,98,0.00,,,0.14,meteohub,2013-01-24 09:04:00,
2013-01-24 01:09:00,48.6,48.0,29.94,ENE,60,0.0,2.0,98,0.00,,,0.14,meteohub,2013-01-24 09:09:00,
2013-01-24 01:14:00,48.6,48.0,29.94,ENE,60,0.0,1.0,98,0.00,,,0.14,meteohub,2013-01-24 09:14:00,
2013-01-24 01:19:00,48.6,48.0,29.94,ENE,60,0.0,1.0,98,0.00,,,0.14,meteohub,2013-01-24 09:19:00,
2013-01-24 01:24:00,48.4,47.8,29.94,ENE,60,0.0,0.0,98,0.00,,,0.14,meteohub,2013-01-24 09:24:00,
2013-01-24 01:29:00,48.4,47.8,29.94,ENE,60,2.0,2.0,98,0.00,,,0.14,meteohub,2013-01-24 09:29:00,
2013-01-24 01:34:00,48.4,47.8,29.94,ENE,60,0.0,1.0,98,0.00,,,0.14,meteohub,2013-01-24 09:34:00,
2013-01-24 01:39:00,48.4,47.8,29.94,ENE,60,0.0,3.0,98,0.00,,,0.14,meteohub,2013-01-24 09:39:00,
2013-01-24 01:44:00,48.4,47.8,29.94,ENE,60,0.0,3.0,98,0.00,,,0.14,meteohub,2013-01-24 09:44:00,
2013-01-24 01:49:00,48.4,47.8,29.94,ENE,60,0.0,3.0,98,0.00,,,0.14,meteohub,2013-01-24 09:49:00,
2013-01-24 01:54:00,48.2,47.7,29.95,ENE,60,0.0,1.0,98,0.00,,,0.14,meteohub,2013-01-24 09:54:00,
2013-01-24 01:59:00,48.2,47.7,29.95,ENE,60,0.0,0.0,98,0.00,,,0.14,meteohub,2013-01-24 09:59:00,
2013-01-24 02:04:00,48.0,47.5,29.95,ENE,60,0.0,0.0,98,0.00,,,0.14,meteohub,2013-01-24 10:04:00,
2013-01-24 02:09:00,48.0,47.5,29.95,ENE,60,0.0,0.0,98,0.00,,,0.14,meteohub,2013-01-24 10:09:00,
2013-01-24 02:14:00,48.0,47.5,29.95,ENE,60,0.0,0.0,98,0.00,,,0.14,meteohub,2013-01-24 10:14:00,
2013-01-24 02:19:00,48.0,47.5,29.95,ENE,60,0.0,0.0,98,0.00,,,0.14,meteohub,2013-01-24 10:19:00,
2013-01-24 02:24:00,47.8,47.3,29.95,ENE,60,0.0,0.0,98,0.00,,,0.14,meteohub,2013-01-24 10:24:00,
2013-01-24 02:29:00,47.8,47.3,29.95,ENE,60,0.0,0.0,98,0.00,,,0.14,meteohub,2013-01-24 10:29:00,
2013-01-24 02:34:00,47.8,47.3,29.95,ENE,60,0.0,0.0,98,0.00,,,0.14,meteohub,2013-01-24 10:34:00,
2013-01-24 02:39:00,47.7,47.1,29.94,ENE,60,0.0,0.0,98,0.00,,,0.14,meteohub,2013-01-24 10:39:00,
2013-01-24 02:44:00,47.7,47.1,29.94,ENE,60,0.0,0.0,98,0.00,,,0.14,meteohub,2013-01-24 10:44:00,
2013-01-24 02:49:00,47.7,47.1,29.94,ENE,60,0.0,0.0,98,0.00,,,0.14,meteohub,2013-01-24 10:49:00,
2013-01-24 02:54:00,47.7,47.1,29.94,ENE,60,0.0,0.0,98,0.00,,,0.14,meteohub,2013-01-24 10:54:00,
2013-01-24 02:59:00,47.7,47.1,29.94,ENE,60,0.0,0.0,98,0.00,,,0.14,meteohub,2013-01-24 10:59:00,
2013-01-24 03:04:00,47.8,47.3,29.94,ENE,60,0.0,0.0,98,0.00,,,0.14,meteohub,2013-01-24 11:04:00,
2013-01-24 03:09:00,47.8,47.3,29.94,ENE,60,0.0,0.0,98,0.00,,,0.14,meteohub,2013-01-24 11:09:00,
2013-01-24 03:14:00,48.0,47.5,29.94,ENE,60,0.0,0.0,98,0.00,,,0.14,meteohub,2013-01-24 11:14:00,
2013-01-24 03:19:00,48.0,47.5,29.94,ENE,60,0.0,0.0,98,0.00,,,0.14,meteohub,2013-01-24 11:19:00,
2013-01-24 03:24:00,48.0,47.5,29.94,ENE,60,0.0,0.0,98,0.00,,,0.14,meteohub,2013-01-24 11:24:00,
2013-01-24 03:29:00,47.8,47.3,29.94,ENE,60,0.0,0.0,98,0.00,,,0.14,meteohub,2013-01-24 11:29:00,
2013-01-24 03:34:00,48.4,47.8,29.94,ENE,60,0.0,0.0,98,0.00,,,0.14,meteohub,2013-01-24 11:34:00,
2013-01-24 03:39:00,48.7,48.2,29.94,ENE,61,0.0,0.0,98,0.00,,,0.14,meteohub,2013-01-24 11:39:00,
2013-01-24 03:44:00,49.1,48.6,29.94,ENE,60,0.0,0.0,98,0.00,,,0.14,meteohub,2013-01-24 11:44:00,
2013-01-24 03:49:00,48.9,48.4,29.94,ENE,60,0.0,3.0,98,0.00,,,0.14,meteohub,2013-01-24 11:49:00,
2013-01-24 03:55:00,48.7,48.2,29.95,ENE,60,0.0,3.0,98,0.00,,,0.14,meteohub,2013-01-24 11:55:00,
2013-01-24 04:00:00,48.6,48.0,29.95,ENE,60,0.0,3.0,98,0.00,,,0.14,meteohub,2013-01-24 12:00:00,
2013-01-24 04:05:00,48.4,47.8,29.95,ENE,60,0.0,1.0,98,0.00,,,0.14,meteohub,2013-01-24 12:05:00,
2013-01-24 04:10:00,48.0,47.5,29.95,ENE,60,0.0,1.0,98,0.00,,,0.14,meteohub,2013-01-24 12:10:00,
2013-01-24 04:15:00,47.8,47.3,29.95,ENE,60,0.0,0.0,98,0.00,,,0.14,meteohub,2013-01-24 12:15:00,
2013-01-24 04:20:00,47.8,47.3,29.95,ENE,60,0.0,0.0,98,0.00,,,0.14,meteohub,2013-01-24 12:20:00,
2013-01-24 04:25:00,47.8,47.3,29.96,ENE,60,0.0,0.0,98,0.00,,,0.14,meteohub,2013-01-24 12:25:00,
2013-01-24 04:30:00,47.8,47.3,29.96,ENE,60,0.0,0.0,98,0.00,,,0.14,meteohub,2013-01-24 12:30:00,
2013-01-24 04:35:00,47.8,47.3,29.96,ENE,60,0.0,0.0,98,0.00,,,0.14,meteohub,2013-01-24 12:35:00,
2013-01-24 04:40:00,47.8,47.3,29.96,ENE,60,0.0,0.0,98,0.00,,,0.14,meteohub,2013-01-24 12:40:00,
2013-01-24 04:45:00,47.8,47.3,29.96,ENE,60,0.0,2.0,98,0.00,,,0.14,meteohub,2013-01-24 12:45:00,
2013-01-24 04:50:00,47.8,47.3,29.96,ENE,60,0.0,3.0,98,0.00,,,0.14,meteohub,2013-01-24 12:50:00,
2013-01-24 04:55:00,47.8,47.3,29.96,ENE,60,0.0,3.0,98,0.00,,,0.14,meteohub,2013-01-24 12:55:00,
2013-01-24 05:00:00,47.7,47.1,29.96,ENE,60,0.0,3.0,98,0.00,,,0.14,meteohub,2013-01-24 13:00:00,
2013-01-24 05:05:00,47.7,47.1,29.96,ENE,60,0.0,2.0,98,0.00,,,0.14,meteohub,2013-01-24 13:05:00,
2013-01-24 05:10:00,47.7,47.1,29.96,ENE,60,0.0,0.0,98,0.00,,,0.14,meteohub,2013-01-24 13:10:00,
2013-01-24 05:15:00,47.7,47.1,29.96,ENE,60,0.0,0.0,98,0.00,,,0.14,meteohub,2013-01-24 13:15:00,
2013-01-24 05:20:00,47.7,47.1,29.96,ENE,60,0.0,0.0,98,0.00,,,0.14,meteohub,2013-01-24 13:20:00,
2013-01-24 05:25:00,47.7,47.1,29.95,ENE,60,0.0,0.0,98,0.00,,,0.14,meteohub,2013-01-24 13:25:00,
2013-01-24 05:30:00,47.7,47.1,29.95,ENE,60,0.0,0.0,98,0.00,,,0.14,meteohub,2013-01-24 13:30:00,
2013-01-24 05:35:00,47.7,47.1,29.95,ENE,60,0.0,0.0,98,0.00,,,0.14,meteohub,2013-01-24 13:35:00,
2013-01-24 05:40:00,47.7,47.1,29.95,ENE,60,0.0,0.0,98,0.00,,,0.14,meteohub,2013-01-24 13:40:00,
2013-01-24 05:45:00,47.8,47.3,29.95,ENE,60,0.0,0.0,98,0.00,,,0.14,meteohub,2013-01-24 13:45:00,
2013-01-24 05:50:00,47.8,47.3,29.95,ENE,60,0.0,0.0,98,0.00,,,0.14,meteohub,2013-01-24 13:50:00,
2013-01-24 05:55:00,47.8,47.3,29.95,ENE,60,0.0,0.0,98,0.00,,,0.14,meteohub,2013-01-24 13:55:00,
2013-01-24 06:00:00,47.8,47.3,29.95,ENE,60,0.0,1.0,98,0.00,,,0.14,meteohub,2013-01-24 14:00:00,
2013-01-24 06:05:00,47.8,47.3,29.95,ENE,60,0.0,1.0,98,0.00,,,0.14,meteohub,2013-01-24 14:05:00,
2013-01-24 06:10:00,47.8,47.3,29.96,ENE,60,0.0,0.0,98,0.00,,,0.14,meteohub,2013-01-24 14:10:00,
2013-01-24 06:15:00,47.8,47.3,29.96,ENE,60,0.0,0.0,98,0.00,,,0.14,meteohub,2013-01-24 14:15:00,
2013-01-24 06:20:00,47.8,47.3,29.96,ENE,60,0.0,0.0,98,0.00,,,0.14,meteohub,2013-01-24 14:20:00,
2013-01-24 06:26:00,47.8,47.3,29.96,ENE,60,0.0,0.0,98,0.00,,,0.14,meteohub,2013-01-24 14:26:00,
2013-01-24 06:30:00,47.8,47.3,29.96,ENE,60,0.0,0.0,98,0.00,,,0.14,meteohub,2013-01-24 14:30:00,
2013-01-24 06:35:00,47.8,47.3,29.96,ENE,60,0.0,0.0,98,0.00,,,0.14,meteohub,2013-01-24 14:35:00,
2013-01-24 06:41:00,47.8,47.3,29.97,ENE,60,0.0,0.0,98,0.00,,,0.14,meteohub,2013-01-24 14:41:00,
2013-01-24 06:46:00,47.8,47.3,29.97,ENE,60,0.0,0.0,98,0.00,,,0.14,meteohub,2013-01-24 14:46:00,
2013-01-24 06:51:00,47.8,47.3,29.97,ENE,60,0.0,0.0,98,0.00,,,0.14,meteohub,2013-01-24 14:51:00,
2013-01-24 06:55:00,47.8,47.3,29.97,ENE,60,0.0,0.0,98,0.00,,,0.14,meteohub,2013-01-24 14:55:00,
2013-01-24 07:01:00,47.8,47.3,29.97,ENE,60,0.0,0.0,98,0.00,,,0.14,meteohub,2013-01-24 15:01:00,
2013-01-24 07:06:00,47.8,47.3,29.97,ENE,60,0.0,0.0,98,0.00,,,0.14,meteohub,2013-01-24 15:06:00,
2013-01-24 07:11:00,47.8,47.3,29.98,ENE,60,0.0,0.0,98,0.00,,,0.14,meteohub,2013-01-24 15:11:00,
2013-01-24 07:16:00,47.8,47.3,29.98,ENE,60,0.0,0.0,98,0.00,,,0.14,meteohub,2013-01-24 15:16:00,
2013-01-24 07:21:00,47.8,47.3,29.98,ENE,60,0.0,0.0,98,0.00,,,0.14,meteohub,2013-01-24 15:21:00,
2013-01-24 07:26:00,47.8,47.3,29.98,ENE,60,0.0,0.0,98,0.00,,,0.14,meteohub,2013-01-24 15:26:00,
2013-01-24 07:31:00,47.8,47.3,29.98,ENE,60,0.0,0.0,98,0.00,,,0.14,meteohub,2013-01-24 15:31:00,
2013-01-24 07:36:00,47.8,47.3,29.98,ENE,60,0.0,0.0,98,0.00,,,0.14,meteohub,2013-01-24 15:36:00,
2013-01-24 07:41:00,47.8,47.3,29.98,ENE,60,0.0,0.0,98,0.00,,,0.14,meteohub,2013-01-24 15:41:00,
2013-01-24 07:46:00,47.8,47.3,29.98,ENE,60,0.0,0.0,98,0.00,,,0.14,meteohub,2013-01-24 15:46:00,
2013-01-24 07:51:00,47.8,47.3,29.98,ENE,60,0.0,0.0,98,0.00,,,0.14,meteohub,2013-01-24 15:51:00,
2013-01-24 07:56:00,47.8,47.3,29.97,ENE,60,0.0,0.0,98,0.00,,,0.14,meteohub,2013-01-24 15:56:00,
2013-01-24 08:01:00,47.8,47.3,29.97,ENE,60,0.0,0.0,98,0.00,,,0.14,meteohub,2013-01-24 16:01:00,
2013-01-24 08:06:00,47.8,47.3,29.97,ENE,60,0.0,0.0,98,0.00,,,0.14,meteohub,2013-01-24 16:06:00,
2013-01-24 08:11:00,47.8,47.3,29.97,ENE,60,0.0,0.0,98,0.00,,,0.14,meteohub,2013-01-24 16:11:00,
2013-01-24 08:16:00,47.8,47.3,29.97,ENE,60,0.0,0.0,98,0.00,,,0.14,meteohub,2013-01-24 16:16:00,
2013-01-24 08:21:00,48.0,47.5,29.97,ENE,60,0.0,0.0,98,0.00,,,0.14,meteohub,2013-01-24 16:21:00,
2013-01-24 08:26:00,48.0,47.5,29.98,ENE,60,0.0,0.0,98,0.00,,,0.14,meteohub,2013-01-24 16:26:00,
2013-01-24 08:31:00,48.0,47.5,29.98,ENE,60,0.0,0.0,98,0.00,,,0.14,meteohub,2013-01-24 16:31:00,
2013-01-24 08:36:00,48.2,47.7,29.98,ENE,60,0.0,0.0,98,0.00,,,0.14,meteohub,2013-01-24 16:36:00,
2013-01-24 08:41:00,48.4,47.8,29.98,ENE,60,0.0,0.0,98,0.00,,,0.14,meteohub,2013-01-24 16:41:00,
2013-01-24 08:46:00,48.6,48.4,29.98,ENE,60,0.0,0.0,99,0.00,,,0.14,meteohub,2013-01-24 16:46:00,
2013-01-24 08:51:00,48.6,48.4,29.98,ENE,60,0.0,0.0,99,0.00,,,0.14,meteohub,2013-01-24 16:51:00,
2013-01-24 08:56:00,48.7,48.6,29.99,ENE,60,0.0,0.0,99,0.00,,,0.14,meteohub,2013-01-24 16:56:00,
2013-01-24 09:01:00,48.7,48.2,29.99,ENE,60,0.0,0.0,98,0.00,,,0.14,meteohub,2013-01-24 17:01:00,
2013-01-24 09:06:00,48.9,48.4,29.99,ENE,60,0.0,0.0,98,0.00,,,0.14,meteohub,2013-01-24 17:06:00,
2013-01-24 09:11:00,48.9,48.7,29.99,ENE,60,0.0,0.0,99,0.00,,,0.14,meteohub,2013-01-24 17:11:00,
2013-01-24 09:16:00,48.9,48.7,29.99,ENE,60,0.0,0.0,99,0.00,,,0.14,meteohub,2013-01-24 17:16:00,
2013-01-24 09:21:00,49.3,49.1,29.99,ENE,60,0.0,1.0,99,0.00,,,0.14,meteohub,2013-01-24 17:21:00,
2013-01-24 09:26:00,49.3,49.1,30.00,ENE,60,1.0,1.0,99,0.00,,,0.14,meteohub,2013-01-24 17:26:00,
2013-01-24 09:31:00,49.3,49.1,30.00,ENE,60,0.0,1.0,99,0.00,,,0.14,meteohub,2013-01-24 17:31:00,
2013-01-24 09:36:00,49.3,49.1,30.00,ENE,60,1.0,2.0,99,0.00,,,0.14,meteohub,2013-01-24 17:36:00,
2013-01-24 09:41:00,49.1,48.9,30.01,ENE,60,0.0,2.0,99,0.00,,,0.14,meteohub,2013-01-24 17:41:00,
2013-01-24 09:46:00,48.9,48.7,30.01,ENE,60,0.0,2.0,99,0.00,,,0.14,meteohub,2013-01-24 17:46:00,
2013-01-24 09:51:00,48.9,48.7,30.01,ENE,60,0.0,2.0,99,0.00,,,0.14,meteohub,2013-01-24 17:51:00,
2013-01-24 09:56:00,49.1,48.9,30.02,ENE,60,0.0,2.0,99,0.00,,,0.14,meteohub,2013-01-24 17:56:00,
2013-01-24 10:01:00,49.1,48.9,30.02,ENE,60,0.0,1.0,99,0.00,,,0.14,meteohub,2013-01-24 18:01:00,
2013-01-24 10:06:00,49.3,49.1,30.02,ENE,60,0.0,0.0,99,0.00,,,0.14,meteohub,2013-01-24 18:06:00,
2013-01-24 10:11:00,49.3,49.1,30.02,ENE,60,0.0,2.0,99,0.00,,,0.14,meteohub,2013-01-24 18:11:00,
2013-01-24 10:16:00,49.3,48.7,30.02,ENE,60,0.0,2.0,98,0.00,,,0.14,meteohub,2013-01-24 18:16:00,
2013-01-24 10:22:00,49.5,48.9,30.02,ENE,60,0.0,2.0,98,0.00,,,0.14,meteohub,2013-01-24 18:22:00,
2013-01-24 10:27:00,49.5,48.9,30.03,ENE,60,0.0,0.0,98,0.00,,,0.14,meteohub,2013-01-24 18:27:00,
2013-01-24 10:32:00,49.6,49.5,30.03,ENE,60,0.0,0.0,99,0.00,,,0.14,meteohub,2013-01-24 18:32:00,
2013-01-24 10:37:00,49.6,49.5,30.03,ENE,60,0.0,0.0,99,0.00,,,0.14,meteohub,2013-01-24 18:37:00,
2013-01-24 10:42:00,49.8,49.5,30.03,ENE,60,0.0,0.0,99,0.00,,,0.14,meteohub,2013-01-24 18:42:00,
2013-01-24 10:47:00,49.8,49.5,30.03,ENE,60,0.0,0.0,99,0.00,,,0.14,meteohub,2013-01-24 18:47:00,
2013-01-24 10:52:00,49.8,49.5,30.03,ENE,60,0.0,0.0,99,0.00,,,0.14,meteohub,2013-01-24 18:52:00,
2013-01-24 10:57:00,50.0,49.6,30.03,ENE,60,0.0,0.0,99,0.00,,,0.14,meteohub,2013-01-24 18:57:00,
2013-01-24 11:02:00,50.2,49.8,30.03,ENE,60,0.0,0.0,99,0.00,,,0.14,meteohub,2013-01-24 19:02:00,
2013-01-24 11:07:00,50.2,49.8,30.03,ENE,60,0.0,0.0,99,0.00,,,0.14,meteohub,2013-01-24 19:07:00,
2013-01-24 11:12:00,50.2,49.8,30.03,ENE,60,0.0,0.0,99,0.00,,,0.14,meteohub,2013-01-24 19:12:00,
2013-01-24 11:17:00,50.2,49.8,30.03,ENE,60,1.0,0.0,99,0.00,,,0.14,meteohub,2013-01-24 19:17:00,
2013-01-24 11:22:00,50.4,50.0,30.03,ENE,60,0.0,3.0,99,0.00,,,0.14,meteohub,2013-01-24 19:22:00,
2013-01-24 11:27:00,50.4,50.0,30.03,ENE,60,0.0,3.0,99,0.00,,,0.14,meteohub,2013-01-24 19:27:00,
2013-01-24 11:32:00,50.5,50.2,30.03,ENE,60,0.0,3.0,99,0.00,,,0.14,meteohub,2013-01-24 19:32:00,
2013-01-24 11:37:00,50.5,50.2,30.03,ENE,60,0.0,0.0,99,0.00,,,0.14,meteohub,2013-01-24 19:37:00,
2013-01-24 11:42:00,50.7,50.4,30.02,ENE,60,0.0,1.0,99,0.00,,,0.14,meteohub,2013-01-24 19:42:00,
2013-01-24 11:47:00,51.1,50.7,30.02,ENE,60,0.0,1.0,99,0.00,,,0.14,meteohub,2013-01-24 19:47:00,
2013-01-24 11:52:00,51.3,50.9,30.02,ENE,60,0.0,1.0,99,0.00,,,0.14,meteohub,2013-01-24 19:52:00,
2013-01-24 11:57:00,51.4,51.1,30.01,ENE,60,0.0,2.0,99,0.00,,,0.14,meteohub,2013-01-24 19:57:00,
2013-01-24 12:02:00,52.0,51.6,30.01,ENE,61,0.0,2.0,99,0.00,,,0.14,meteohub,2013-01-24 20:02:00,
2013-01-24 12:07:00,52.3,52.0,30.01,ENE,61,0.0,2.0,99,0.00,,,0.14,meteohub,2013-01-24 20:07:00,
2013-01-24 12:12:00,52.7,52.3,30.01,ENE,61,0.0,1.0,99,0.00,,,0.14,meteohub,2013-01-24 20:12:00,
2013-01-24 12:17:00,52.9,52.5,30.01,ENE,61,0.0,1.0,99,0.00,,,0.14,meteohub,2013-01-24 20:17:00,
2013-01-24 12:22:00,53.1,52.7,30.01,ENE,60,0.0,1.0,99,0.00,,,0.14,meteohub,2013-01-24 20:22:00,
2013-01-24 12:27:00,53.1,52.7,30.00,ENE,60,0.0,3.0,99,0.00,,,0.14,meteohub,2013-01-24 20:27:00,
2013-01-24 12:32:00,53.2,52.9,30.00,ENE,61,0.0,3.0,99,0.00,,,0.14,meteohub,2013-01-24 20:32:00,
2013-01-24 12:37:00,53.2,52.9,30.00,ENE,61,0.0,3.0,99,0.00,,,0.14,meteohub,2013-01-24 20:37:00,
2013-01-24 12:42:00,53.4,53.1,30.00,ENE,61,1.0,2.0,99,0.00,,,0.14,meteohub,2013-01-24 20:42:00,
2013-01-24 12:47:00,53.4,53.1,30.00,ENE,61,0.0,2.0,99,0.00,,,0.14,meteohub,2013-01-24 20:47:00,
2013-01-24 12:52:00,53.8,53.4,30.00,ENE,60,0.0,2.0,99,0.00,,,0.14,meteohub,2013-01-24 20:52:00,
2013-01-24 12:57:00,54.0,53.6,29.99,ENE,60,0.0,2.0,99,0.00,,,0.14,meteohub,2013-01-24 20:57:00,
2013-01-24 13:02:00,54.1,53.8,29.99,ENE,61,0.0,0.0,99,0.00,,,0.14,meteohub,2013-01-24 21:02:00,
2013-01-24 13:07:00,54.3,54.0,29.99,ENE,60,0.0,0.0,99,0.00,,,0.14,meteohub,2013-01-24 21:07:00,
2013-01-24 13:12:00,54.5,54.1,29.99,ENE,61,0.0,0.0,99,0.00,,,0.14,meteohub,2013-01-24 21:12:00,
2013-01-24 13:17:00,54.7,54.3,29.99,ENE,61,0.0,1.0,99,0.00,,,0.14,meteohub,2013-01-24 21:17:00,
2013-01-24 13:22:00,54.7,54.1,29.99,ENE,61,0.0,2.0,98,0.00,,,0.14,meteohub,2013-01-24 21:22:00,
2013-01-24 13:27:00,54.7,54.1,29.99,ENE,60,0.0,2.0,98,0.00,,,0.14,meteohub,2013-01-24 21:27:00,
2013-01-24 13:32:00,54.9,54.0,29.99,ENE,60,0.0,2.0,97,0.00,,,0.14,meteohub,2013-01-24 21:32:00,
2013-01-24 13:37:00,55.0,54.1,29.99,ENE,60,0.0,2.0,97,0.00,,,0.14,meteohub,2013-01-24 21:37:00,
2013-01-24 13:42:00,55.0,54.1,29.98,ENE,60,0.0,0.0,97,0.00,,,0.14,meteohub,2013-01-24 21:42:00,
2013-01-24 13:47:00,55.2,54.3,29.98,ENE,60,0.0,0.0,97,0.00,,,0.14,meteohub,2013-01-24 21:47:00,
2013-01-24 13:52:00,55.2,54.3,29.98,ENE,60,0.0,0.0,97,0.00,,,0.14,meteohub,2013-01-24 21:52:00,
2013-01-24 13:57:00,55.2,54.3,29.98,ENE,61,0.0,0.0,97,0.00,,,0.14,meteohub,2013-01-24 21:57:00,
2013-01-24 14:02:00,55.2,54.3,29.98,ENE,60,0.0,0.0,97,0.00,,,0.14,meteohub,2013-01-24 22:02:00,
2013-01-24 14:07:00,55.2,54.3,29.98,ENE,60,0.0,0.0,97,0.00,,,0.14,meteohub,2013-01-24 22:07:00,
2013-01-24 14:12:00,55.2,54.3,29.97,ENE,60,0.0,0.0,97,0.00,,,0.14,meteohub,2013-01-24 22:12:00,
2013-01-24 14:17:00,55.2,54.3,29.97,ENE,61,0.0,0.0,97,0.00,,,0.14,meteohub,2013-01-24 22:17:00,
2013-01-24 14:22:00,55.2,54.3,29.97,ENE,61,0.0,1.0,97,0.00,,,0.14,meteohub,2013-01-24 22:22:00,
2013-01-24 14:27:00,55.4,54.5,29.97,ENE,60,0.0,1.0,97,0.00,,,0.14,meteohub,2013-01-24 22:27:00,
2013-01-24 14:32:00,55.4,54.3,29.97,ENE,60,0.0,1.0,96,0.00,,,0.14,meteohub,2013-01-24 22:32:00,
2013-01-24 14:37:00,55.4,54.3,29.97,ENE,60,0.0,1.0,96,0.00,,,0.14,meteohub,2013-01-24 22:37:00,
2013-01-24 14:42:00,55.6,54.5,29.97,ENE,60,0.0,0.0,96,0.00,,,0.14,meteohub,2013-01-24 22:42:00,
2013-01-24 14:47:00,55.6,54.5,29.97,ENE,60,0.0,0.0,96,0.00,,,0.14,meteohub,2013-01-24 22:47:00,
2013-01-24 14:52:00,55.8,54.9,29.97,ENE,61,0.0,0.0,97,0.00,,,0.14,meteohub,2013-01-24 22:52:00,
2013-01-24 14:57:00,55.9,54.9,29.97,ENE,60,0.0,0.0,96,0.00,,,0.14,meteohub,2013-01-24 22:57:00,
2013-01-24 15:02:00,56.1,55.2,29.97,ENE,60,0.0,0.0,97,0.00,,,0.14,meteohub,2013-01-24 23:02:00,
2013-01-24 15:07:00,56.3,55.4,29.97,ENE,60,0.0,0.0,97,0.00,,,0.14,meteohub,2013-01-24 23:07:00,
2013-01-24 15:12:00,56.5,55.4,29.97,ENE,60,0.0,0.0,96,0.00,,,0.14,meteohub,2013-01-24 23:12:00,
2013-01-24 15:17:00,56.5,55.4,29.97,ENE,60,0.0,0.0,96,0.00,,,0.14,meteohub,2013-01-24 23:17:00,
2013-01-24 15:22:00,56.7,55.6,29.97,ENE,60,0.0,0.0,96,0.00,,,0.14,meteohub,2013-01-24 23:22:00,
2013-01-24 15:27:00,56.7,55.6,29.98,ENE,61,0.0,0.0,96,0.00,,,0.14,meteohub,2013-01-24 23:27:00,
2013-01-24 15:32:00,56.7,55.6,29.98,ENE,61,0.0,0.0,96,0.00,,,0.14,meteohub,2013-01-24 23:32:00,
2013-01-24 15:37:00,56.7,55.2,29.98,ENE,60,0.0,0.0,95,0.00,,,0.14,meteohub,2013-01-24 23:37:00,
2013-01-24 15:42:00,56.7,55.2,29.98,ENE,60,0.0,0.0,95,0.00,,,0.14,meteohub,2013-01-24 23:42:00,
2013-01-24 15:47:00,56.5,55.0,29.98,ENE,60,0.0,0.0,95,0.00,,,0.14,meteohub,2013-01-24 23:47:00,
2013-01-24 15:52:00,56.5,55.0,29.98,ENE,61,0.0,0.0,95,0.00,,,0.14,meteohub,2013-01-24 23:52:00,
2013-01-24 15:57:00,56.5,55.0,29.98,ENE,60,0.0,0.0,95,0.00,,,0.14,meteohub,2013-01-24 23:57:00,
2013-01-24 16:02:00,56.5,54.9,29.98,ENE,61,0.0,4.0,94,0.00,,,0.14,meteohub,2013-01-25 00:02:00,
2013-01-24 16:07:00,56.5,55.0,29.98,ENE,60,0.0,4.0,95,0.00,,,0.00,meteohub,2013-01-25 00:07:00,
2013-01-24 16:12:00,56.7,55.2,29.99,ENE,60,1.0,4.0,95,0.00,,,0.00,meteohub,2013-01-25 00:12:00,
2013-01-24 16:17:00,56.5,54.9,29.99,ENE,60,0.0,2.0,94,0.00,,,0.00,meteohub,2013-01-25 00:17:00,
2013-01-24 16:22:00,56.5,54.9,29.99,ENE,60,0.0,2.0,94,0.00,,,0.00,meteohub,2013-01-25 00:22:00,
2013-01-24 16:27:00,56.1,54.5,30.00,ENE,60,0.0,1.0,94,0.00,,,0.00,meteohub,2013-01-25 00:27:00,
2013-01-24 16:33:00,56.1,54.5,30.00,ENE,60,0.0,1.0,94,0.00,,,0.00,meteohub,2013-01-25 00:33:00,
2013-01-24 16:38:00,55.9,54.0,30.00,ENE,60,0.0,1.0,93,0.00,,,0.00,meteohub,2013-01-25 00:38:00,
2013-01-24 16:43:00,55.8,54.1,30.00,ENE,60,0.0,1.0,94,0.00,,,0.00,meteohub,2013-01-25 00:43:00,
2013-01-24 16:48:00,55.8,53.8,30.00,ENE,60,0.0,1.0,93,0.00,,,0.00,meteohub,2013-01-25 00:48:00,
2013-01-24 16:53:00,55.4,53.4,30.00,ENE,60,0.0,2.0,93,0.00,,,0.00,meteohub,2013-01-25 00:53:00,
2013-01-24 16:58:00,55.2,53.2,30.01,ENE,60,0.0,2.0,93,0.00,,,0.00,meteohub,2013-01-25 00:58:00,
2013-01-24 17:03:00,55.0,53.4,30.01,ENE,60,0.0,2.0,94,0.00,,,0.00,meteohub,2013-01-25 01:03:00,
2013-01-24 17:08:00,54.9,53.2,30.01,ENE,60,0.0,1.0,94,0.00,,,0.00,meteohub,2013-01-25 01:08:00,
2013-01-24 17:13:00,54.7,53.1,30.01,ENE,60,0.0,1.0,94,0.00,,,0.00,meteohub,2013-01-25 01:13:00,
2013-01-24 17:18:00,54.5,52.9,30.01,ENE,61,0.0,0.0,94,0.00,,,0.00,meteohub,2013-01-25 01:18:00,
2013-01-24 17:23:00,54.3,52.7,30.01,ENE,60,0.0,1.0,94,0.00,,,0.00,meteohub,2013-01-25 01:23:00,
2013-01-24 17:28:00,54.1,52.5,30.01,ENE,60,0.0,1.0,94,0.00,,,0.00,meteohub,2013-01-25 01:28:00,
2013-01-24 17:33:00,54.0,52.5,30.01,ENE,60,0.0,0.0,95,0.00,,,0.00,meteohub,2013-01-25 01:33:00,
2013-01-24 17:38:00,53.8,52.3,30.01,ENE,60,0.0,0.0,95,0.00,,,0.00,meteohub,2013-01-25 01:38:00,
2013-01-24 17:43:00,53.8,52.3,30.01,ENE,61,0.0,0.0,95,0.00,,,0.00,meteohub,2013-01-25 01:43:00,
2013-01-24 17:48:00,53.4,52.0,30.01,ENE,60,0.0,0.0,95,0.00,,,0.00,meteohub,2013-01-25 01:48:00,
2013-01-24 17:53:00,53.4,52.0,30.01,ENE,60,0.0,0.0,95,0.00,,,0.00,meteohub,2013-01-25 01:53:00,
2013-01-24 17:58:00,53.2,51.8,30.02,ENE,61,0.0,0.0,95,0.00,,,0.00,meteohub,2013-01-25 01:58:00,
2013-01-24 18:03:00,53.1,51.6,30.02,ENE,60,0.0,0.0,95,0.00,,,0.00,meteohub,2013-01-25 02:03:00,
2013-01-24 18:08:00,53.1,52.0,30.02,ENE,60,0.0,0.0,96,0.00,,,0.00,meteohub,2013-01-25 02:08:00,
2013-01-24 18:13:00,52.9,51.8,30.02,ENE,60,0.0,0.0,96,0.00,,,0.00,meteohub,2013-01-25 02:13:00,
2013-01-24 18:18:00,52.5,51.1,30.02,ENE,60,0.0,0.0,95,0.00,,,0.00,meteohub,2013-01-25 02:18:00,
2013-01-24 18:23:00,52.3,50.9,30.02,ENE,60,0.0,0.0,95,0.00,,,0.00,meteohub,2013-01-25 02:23:00,
2013-01-24 18:28:00,52.3,51.3,30.02,ENE,60,0.0,0.0,96,0.00,,,0.00,meteohub,2013-01-25 02:28:00,
2013-01-24 18:33:00,52.2,51.1,30.02,ENE,60,0.0,0.0,96,0.00,,,0.00,meteohub,2013-01-25 02:33:00,
2013-01-24 18:38:00,52.0,50.9,30.03,ENE,60,0.0,0.0,96,0.00,,,0.00,meteohub,2013-01-25 02:38:00,
2013-01-24 18:43:00,51.6,50.5,30.03,ENE,60,0.0,0.0,96,0.00,,,0.00,meteohub,2013-01-25 02:43:00,
2013-01-24 18:48:00,51.4,50.4,30.03,ENE,60,0.0,0.0,96,0.00,,,0.00,meteohub,2013-01-25 02:48:00,
2013-01-24 18:53:00,51.3,50.2,30.03,ENE,60,0.0,0.0,96,0.00,,,0.00,meteohub,2013-01-25 02:53:00,
2013-01-24 18:58:00,51.3,50.4,30.03,ENE,60,0.0,0.0,97,0.00,,,0.00,meteohub,2013-01-25 02:58:00,
2013-01-24 19:03:00,51.3,50.4,30.03,ENE,60,0.0,0.0,97,0.00,,,0.00,meteohub,2013-01-25 03:03:00,
2013-01-24 19:08:00,51.1,50.2,30.03,ENE,60,0.0,0.0,97,0.00,,,0.00,meteohub,2013-01-25 03:08:00,
2013-01-24 19:13:00,51.1,50.2,30.03,ENE,60,0.0,1.0,97,0.00,,,0.00,meteohub,2013-01-25 03:13:00,
2013-01-24 19:19:00,51.1,50.2,30.03,ENE,60,0.0,1.0,97,0.00,,,0.00,meteohub,2013-01-25 03:19:00,
2013-01-24 19:24:00,50.7,49.8,30.03,ENE,60,0.0,1.0,97,0.00,,,0.00,meteohub,2013-01-25 03:24:00,
2013-01-24 19:29:00,50.9,50.0,30.03,ENE,60,0.0,0.0,97,0.00,,,0.00,meteohub,2013-01-25 03:29:00,
2013-01-24 19:34:00,50.7,49.8,30.03,ENE,60,0.0,0.0,97,0.00,,,0.00,meteohub,2013-01-25 03:34:00,
2013-01-24 19:39:00,50.7,49.8,30.04,ENE,60,0.0,0.0,97,0.00,,,0.00,meteohub,2013-01-25 03:39:00,
2013-01-24 19:44:00,50.7,49.8,30.04,ENE,60,0.0,0.0,97,0.00,,,0.00,meteohub,2013-01-25 03:44:00,
2013-01-24 19:49:00,50.7,49.8,30.04,ENE,60,0.0,0.0,97,0.00,,,0.00,meteohub,2013-01-25 03:49:00,
2013-01-24 19:54:00,50.5,49.6,30.04,ENE,60,0.0,0.0,97,0.00,,,0.00,meteohub,2013-01-25 03:54:00,
2013-01-24 19:59:00,50.5,49.6,30.04,ENE,60,0.0,0.0,97,0.00,,,0.00,meteohub,2013-01-25 03:59:00,
2013-01-24 20:04:00,50.4,49.5,30.04,ENE,60,0.0,0.0,97,0.00,,,0.00,meteohub,2013-01-25 04:04:00,
2013-01-24 20:09:00,50.4,49.5,30.04,ENE,60,0.0,0.0,97,0.00,,,0.00,meteohub,2013-01-25 04:09:00,
2013-01-24 20:14:00,50.4,49.5,30.04,ENE,60,0.0,0.0,97,0.00,,,0.00,meteohub,2013-01-25 04:14:00,
2013-01-24 20:19:00,50.4,49.8,30.04,ENE,60,0.0,0.0,98,0.00,,,0.00,meteohub,2013-01-25 04:19:00,
2013-01-24 20:24:00,50.4,49.8,30.04,ENE,60,0.0,0.0,98,0.00,,,0.00,meteohub,2013-01-25 04:24:00,
2013-01-24 20:29:00,50.2,49.3,30.04,ENE,60,0.0,0.0,97,0.00,,,0.00,meteohub,2013-01-25 04:29:00,
2013-01-24 20:34:00,50.2,49.3,30.04,ENE,60,0.0,0.0,97,0.00,,,0.00,meteohub,2013-01-25 04:34:00,
2013-01-24 20:39:00,50.2,49.6,30.05,ENE,60,0.0,0.0,98,0.00,,,0.00,meteohub,2013-01-25 04:39:00,
2013-01-24 20:44:00,50.4,49.8,30.05,ENE,60,0.0,0.0,98,0.00,,,0.00,meteohub,2013-01-25 04:44:00,
2013-01-24 20:49:00,50.4,49.8,30.05,ENE,60,0.0,0.0,98,0.00,,,0.00,meteohub,2013-01-25 04:49:00,
2013-01-24 20:54:00,50.4,49.8,30.04,ENE,60,0.0,0.0,98,0.00,,,0.00,meteohub,2013-01-25 04:54:00,
2013-01-24 20:59:00,50.4,49.8,30.04,ENE,61,0.0,0.0,98,0.00,,,0.00,meteohub,2013-01-25 04:59:00,
2013-01-24 21:00:00,50.4,49.8,30.04,ENE,60,0.0,0.0,98,0.00,,,0.00,meteohub,2013-01-25 05:00:00,
2013-01-24 21:02:00,50.4,49.8,30.04,ENE,60,0.0,0.0,98,0.00,,,0.00,meteohub,2013-01-25 05:02:00,
2013-01-24 21:07:00,50.2,49.6,30.04,ENE,60,0.0,0.0,98,0.00,,,0.00,meteohub,2013-01-25 05:07:00,
2013-01-24 21:12:00,50.2,49.6,30.04,ENE,60,0.0,0.0,98,0.00,,,0.00,meteohub,2013-01-25 05:12:00,
2013-01-24 21:17:00,50.2,49.6,30.04,ENE,60,0.0,0.0,98,0.00,,,0.00,meteohub,2013-01-25 05:17:00,
2013-01-24 21:22:00,50.2,49.6,30.04,ENE,60,0.0,0.0,98,0.00,,,0.00,meteohub,2013-01-25 05:22:00,
2013-01-24 21:27:00,50.0,49.5,30.05,ENE,60,0.0,0.0,98,0.00,,,0.00,meteohub,2013-01-25 05:27:00,
2013-01-24 21:32:00,50.2,49.6,30.05,ENE,60,0.0,0.0,98,0.00,,,0.00,meteohub,2013-01-25 05:32:00,
2013-01-24 21:37:00,50.2,49.6,30.05,ENE,60,0.0,0.0,98,0.00,,,0.00,meteohub,2013-01-25 05:37:00,
2013-01-24 21:42:00,50.4,49.8,30.05,ENE,60,0.0,0.0,98,0.00,,,0.00,meteohub,2013-01-25 05:42:00,
2013-01-24 21:47:00,50.4,49.8,30.05,ENE,60,0.0,0.0,98,0.00,,,0.00,meteohub,2013-01-25 05:47:00,
2013-01-24 21:52:00,50.4,49.8,30.05,ENE,60,0.0,0.0,98,0.00,,,0.00,meteohub,2013-01-25 05:52:00,
2013-01-24 21:57:00,50.4,49.8,30.06,ENE,60,0.0,0.0,98,0.00,,,0.00,meteohub,2013-01-25 05:57:00,
2013-01-24 22:02:00,50.5,50.0,30.06,ENE,60,0.0,0.0,98,0.00,,,0.00,meteohub,2013-01-25 06:02:00,
2013-01-24 22:07:00,50.5,50.0,30.06,ENE,60,0.0,0.0,98,0.00,,,0.00,meteohub,2013-01-25 06:07:00,
2013-01-24 22:12:00,50.5,50.0,30.05,ENE,60,0.0,0.0,98,0.00,,,0.00,meteohub,2013-01-25 06:12:00,
2013-01-24 22:17:00,50.5,50.0,30.05,ENE,60,0.0,0.0,98,0.00,,,0.00,meteohub,2013-01-25 06:17:00,
2013-01-24 22:22:00,50.5,50.0,30.05,ENE,60,0.0,0.0,98,0.00,,,0.00,meteohub,2013-01-25 06:22:00,
2013-01-24 22:27:00,50.5,50.0,30.05,ENE,60,0.0,0.0,98,0.00,,,0.00,meteohub,2013-01-25 06:27:00,
2013-01-24 22:32:00,50.5,50.0,30.05,ENE,60,0.0,0.0,98,0.00,,,0.00,meteohub,2013-01-25 06:32:00,
2013-01-24 22:37:00,50.5,50.0,30.05,ENE,60,0.0,0.0,98,0.00,,,0.00,meteohub,2013-01-25 06:37:00,
2013-01-24 22:42:00,50.4,49.8,30.05,ENE,60,0.0,0.0,98,0.00,,,0.00,meteohub,2013-01-25 06:42:00,
2013-01-24 22:47:00,50.4,49.8,30.05,ENE,60,0.0,0.0,98,0.00,,,0.00,meteohub,2013-01-25 06:47:00,
2013-01-24 22:52:00,50.4,49.8,30.05,ENE,60,0.0,0.0,98,0.00,,,0.00,meteohub,2013-01-25 06:52:00,
2013-01-24 22:57:00,50.2,49.6,30.05,ENE,60,0.0,0.0,98,0.00,,,0.00,meteohub,2013-01-25 06:57:00,
2013-01-24 23:02:00,50.2,49.6,30.05,ENE,60,0.0,0.0,98,0.00,,,0.00,meteohub,2013-01-25 07:02:00,
2013-01-24 23:07:00,50.2,49.6,30.05,ENE,60,0.0,0.0,98,0.00,,,0.00,meteohub,2013-01-25 07:07:00,
2013-01-24 23:12:00,49.8,49.3,30.05,ENE,60,0.0,0.0,98,0.00,,,0.00,meteohub,2013-01-25 07:12:00,
2013-01-24 23:18:00,49.8,49.3,30.05,ENE,60,0.0,0.0,98,0.00,,,0.00,meteohub,2013-01-25 07:18:00,
2013-01-24 23:23:00,49.6,49.1,30.05,ENE,60,0.0,0.0,98,0.00,,,0.00,meteohub,2013-01-25 07:23:00,
2013-01-24 23:28:00,49.8,49.3,30.05,ENE,60,0.0,0.0,98,0.00,,,0.00,meteohub,2013-01-25 07:28:00,
2013-01-24 23:33:00,49.6,49.1,30.05,ENE,60,0.0,0.0,98,0.00,,,0.00,meteohub,2013-01-25 07:33:00,
2013-01-24 23:38:00,49.5,48.9,30.05,ENE,60,0.0,0.0,98,0.00,,,0.00,meteohub,2013-01-25 07:38:00,
2013-01-24 23:43:00,49.3,48.7,30.06,ENE,61,0.0,0.0,98,0.00,,,0.00,meteohub,2013-01-25 07:43:00,
2013-01-24 23:48:00,49.3,48.7,30.06,ENE,60,0.0,0.0,98,0.00,,,0.00,meteohub,2013-01-25 07:48:00,
2013-01-24 23:53:00,49.1,48.6,30.06,ENE,61,0.0,0.0,98,0.00,,,0.00,meteohub,2013-01-25 07:53:00,
2013-01-24 23:58:00,49.3,48.7,30.05,ENE,60,0.0,0.0,98,0.00,,,0.00,meteohub,2013-01-25 07:58:00,